createdAt,value
2022-10-21T00:02:04.556Z,15.50
2022-10-21T00:04:34.011Z,15.75
2022-10-21T00:07:02.396Z,16.08
2022-10-21T00:09:32.089Z,15.45
2022-10-21T00:12:00.409Z,15.98
2022-10-21T00:14:28.832Z,16.33
2022-10-21T00:16:57.122Z,15.10
2022-10-21T00:19:32.786Z,16.13
2022-10-21T00:22:01.044Z,14.88
2022-10-21T00:24:29.897Z,15.65
2022-10-21T00:26:58.213Z,15.73
2022-10-21T00:29:26.561Z,15.77
2022-10-21T00:31:55.299Z,14.80
2022-10-21T00:34:28.230Z,14.80
2022-10-21T00:36:59.994Z,17.05
2022-10-21T00:39:29.601Z,15.48
2022-10-21T00:41:57.933Z,15.52
2022-10-21T00:44:28.310Z,16.10
2022-10-21T00:47:03.438Z,15.50
2022-10-21T00:49:40.459Z,15.00
2022-10-21T00:52:15.308Z,15.82
2022-10-21T00:54:44.506Z,16.42
2022-10-21T00:57:13.084Z,16.13
2022-10-21T00:59:46.689Z,16.38
2022-10-21T01:02:15.358Z,16.38
2022-10-21T01:04:44.129Z,16.40
2022-10-21T01:07:14.111Z,16.80
2022-10-21T01:09:42.613Z,16.13
2022-10-21T01:12:25.890Z,17.33
2022-10-21T01:14:57.936Z,17.35
2022-10-21T01:17:44.964Z,17.60
2022-10-21T01:20:29.788Z,15.73
2022-10-21T01:23:34.689Z,15.88
2022-10-21T01:26:22.752Z,15.68
2022-10-21T01:29:16.192Z,17.48
2022-10-21T01:31:50.360Z,16.25
2022-10-21T01:34:25.979Z,14.93
2022-10-21T01:36:59.800Z,16.27
2022-10-21T01:39:36.951Z,16.95
2022-10-21T01:42:12.294Z,15.70
2022-10-21T01:44:45.282Z,16.73
2022-10-21T01:47:19.331Z,15.40
2022-10-21T01:49:51.348Z,15.50
2022-10-21T01:52:19.958Z,15.57
2022-10-21T01:54:56.488Z,14.70
2022-10-21T01:57:30.859Z,15.45
2022-10-21T02:00:01.266Z,16.13
2022-10-21T02:02:34.942Z,14.73
2022-10-21T02:05:11.537Z,15.20
2022-10-21T02:07:39.941Z,15.23
2022-10-21T02:10:10.021Z,16.08
2022-10-21T02:12:41.598Z,16.55
2022-10-21T02:15:12.838Z,16.92
2022-10-21T02:17:50.762Z,16.15
2022-10-21T02:20:20.484Z,14.95
2022-10-21T02:22:49.872Z,15.57
2022-10-21T02:25:22.965Z,15.85
2022-10-21T02:27:53.146Z,15.75
2022-10-21T02:30:22.193Z,15.90
2022-10-21T02:33:01.114Z,16.35
2022-10-21T02:35:38.906Z,16.77
2022-10-21T02:38:14.854Z,15.52
2022-10-21T02:40:47.358Z,16.25
2022-10-21T02:43:24.172Z,16.80
2022-10-21T02:45:56.102Z,16.20
2022-10-21T02:48:26.328Z,16.20
2022-10-21T02:50:55.304Z,18.13
2022-10-21T02:53:23.598Z,16.02
2022-10-21T02:55:52.841Z,17.73
2022-10-21T02:58:21.126Z,16.33
2022-10-21T03:00:50.369Z,16.02
2022-10-21T03:03:18.745Z,15.85
2022-10-21T03:05:50.220Z,16.23
2022-10-21T03:08:18.884Z,17.40
2022-10-21T03:10:53.052Z,16.02
2022-10-21T03:13:22.218Z,15.75
2022-10-21T03:15:51.259Z,16.02
2022-10-21T03:18:20.250Z,16.00
2022-10-21T03:20:52.642Z,15.30
2022-10-21T03:23:22.194Z,14.27
2022-10-21T03:25:50.500Z,14.57
2022-10-21T03:28:19.002Z,15.55
2022-10-21T03:30:48.389Z,15.40
2022-10-21T03:33:16.676Z,14.65
2022-10-21T03:35:45.178Z,15.45
2022-10-21T03:38:14.822Z,16.45
2022-10-21T03:40:43.102Z,16.85
2022-10-21T03:43:11.479Z,16.17
2022-10-21T03:45:39.870Z,17.67
2022-10-21T03:48:08.575Z,15.80
2022-10-21T03:50:37.250Z,17.08
2022-10-21T03:53:13.688Z,17.75
2022-10-21T03:55:50.982Z,15.20
2022-10-21T03:58:21.406Z,16.33
2022-10-21T04:00:54.277Z,16.67
2022-10-21T04:03:22.899Z,16.52
2022-10-21T04:05:51.345Z,15.95
2022-10-21T04:08:19.742Z,16.20
2022-10-21T04:10:49.624Z,17.70
2022-10-21T04:13:18.432Z,17.00
2022-10-21T04:15:46.785Z,17.02
2022-10-21T04:18:15.143Z,17.23
2022-10-21T04:20:43.967Z,19.85
2022-10-21T04:23:14.457Z,17.92
2022-10-21T04:25:50.015Z,16.60
2022-10-21T04:28:20.326Z,19.40
2022-10-21T04:30:52.745Z,17.88
2022-10-21T04:33:23.006Z,17.58
2022-10-21T04:35:57.384Z,17.10
2022-10-21T04:38:28.537Z,15.63
2022-10-21T04:41:00.150Z,17.05
2022-10-21T04:43:32.149Z,15.32
2022-10-21T04:46:01.908Z,14.85
2022-10-21T04:48:32.414Z,14.30
2022-10-21T04:51:03.338Z,14.43
2022-10-21T04:53:34.171Z,15.25
2022-10-21T04:56:04.190Z,15.52
2022-10-21T04:58:32.558Z,14.82
2022-10-21T05:01:01.541Z,15.70
2022-10-21T05:03:33.478Z,14.80
2022-10-21T05:06:08.048Z,15.68
2022-10-21T05:08:37.806Z,14.57
2022-10-21T05:11:08.670Z,16.40
2022-10-21T05:13:40.633Z,14.88
2022-10-21T05:16:18.333Z,14.80
2022-10-21T05:18:46.908Z,15.30
2022-10-21T05:21:15.301Z,14.43
2022-10-21T05:23:44.324Z,14.40
2022-10-21T05:26:14.077Z,13.00
2022-10-21T05:28:42.423Z,13.88
2022-10-21T05:31:10.696Z,14.88
2022-10-21T05:33:38.948Z,14.07
2022-10-21T05:36:08.721Z,14.18
2022-10-21T05:38:43.005Z,15.27
2022-10-21T05:41:13.811Z,13.48
2022-10-21T05:43:43.362Z,13.40
2022-10-21T05:46:13.804Z,14.27
2022-10-21T05:48:43.305Z,13.95
2022-10-21T05:51:11.688Z,13.45
2022-10-21T05:53:40.810Z,13.95
2022-10-21T05:56:10.491Z,15.02
2022-10-21T05:58:40.134Z,14.80
2022-10-21T06:01:10.612Z,15.63
2022-10-21T06:03:38.984Z,14.00
2022-10-21T06:06:09.290Z,14.57
2022-10-21T06:08:40.243Z,14.73
2022-10-21T06:11:12.138Z,13.43
2022-10-21T06:13:43.159Z,13.40
2022-10-21T06:16:12.881Z,14.02
2022-10-21T06:18:41.849Z,13.65
2022-10-21T06:21:11.396Z,14.20
2022-10-21T06:23:40.138Z,13.77
2022-10-21T06:26:13.073Z,13.40
2022-10-21T06:28:45.052Z,13.77
2022-10-21T06:31:20.675Z,16.65
2022-10-21T06:33:49.154Z,13.63
2022-10-21T06:36:17.802Z,14.23
2022-10-21T06:38:46.378Z,14.05
2022-10-21T06:41:15.891Z,14.00
2022-10-21T06:43:45.618Z,14.15
2022-10-21T06:46:16.490Z,14.35
2022-10-21T06:48:46.227Z,12.88
2022-10-21T06:51:17.319Z,13.82
2022-10-21T06:53:46.699Z,14.75
2022-10-21T06:56:17.644Z,16.75
2022-10-21T06:58:49.338Z,16.17
2022-10-21T07:01:33.548Z,16.65
2022-10-21T07:04:06.273Z,17.35
2022-10-21T07:06:35.207Z,16.98
2022-10-21T07:09:04.690Z,16.73
2022-10-21T07:11:33.493Z,17.35
2022-10-21T07:14:03.656Z,16.52
2022-10-21T07:16:34.463Z,18.52
2022-10-21T07:19:06.612Z,17.30
2022-10-21T07:21:35.143Z,17.92
2022-10-21T07:24:04.662Z,18.20
2022-10-21T07:26:35.371Z,17.67
2022-10-21T07:29:06.227Z,17.73
2022-10-21T07:31:37.624Z,17.40
2022-10-21T07:34:08.871Z,15.50
2022-10-21T07:36:40.358Z,15.30
2022-10-21T07:39:12.801Z,17.58
2022-10-21T07:41:46.257Z,15.27
2022-10-21T07:44:17.818Z,15.70
2022-10-21T07:46:47.151Z,15.93
2022-10-21T07:49:17.083Z,17.88
2022-10-21T07:51:46.834Z,16.25
2022-10-21T07:54:16.161Z,14.88
2022-10-21T07:56:46.953Z,16.30
2022-10-21T07:59:18.795Z,15.90
2022-10-21T08:04:19.128Z,15.75
2022-10-21T08:06:48.817Z,15.02
2022-10-21T08:09:18.299Z,16.27
2022-10-21T08:11:47.088Z,16.10
2022-10-21T08:14:17.121Z,15.38
2022-10-21T08:16:45.874Z,14.75
2022-10-21T08:19:21.239Z,14.77
2022-10-21T08:21:50.041Z,15.13
2022-10-21T08:24:18.453Z,16.10
2022-10-21T08:26:47.959Z,15.70
2022-10-21T08:29:17.879Z,15.63
2022-10-21T08:31:46.255Z,15.35
2022-10-21T08:34:14.727Z,14.15
2022-10-21T08:36:43.973Z,15.45
2022-10-21T08:39:12.675Z,14.48
2022-10-21T08:42:08.116Z,13.43
2022-10-21T08:44:45.690Z,14.35
2022-10-21T08:47:21.744Z,14.45
2022-10-21T08:49:58.211Z,14.20
2022-10-21T08:52:39.811Z,13.02
2022-10-21T08:55:18.256Z,14.27
2022-10-21T08:57:50.462Z,13.02
2022-10-21T09:00:24.203Z,10.23
2022-10-21T09:03:16.489Z,9.98
2022-10-21T09:06:22.131Z,10.75
2022-10-21T09:09:15.085Z,11.45
2022-10-21T09:12:01.523Z,18.02
2022-10-21T09:15:00.017Z,10.68
2022-10-21T09:17:58.547Z,9.95
2022-10-21T09:20:38.799Z,10.25
2022-10-21T09:26:17.729Z,9.30
2022-10-21T09:28:47.352Z,8.15
2022-10-21T09:31:20.488Z,7.55
2022-10-21T09:33:57.102Z,6.32
2022-10-21T09:36:31.331Z,7.57
2022-10-21T09:39:06.496Z,6.47
2022-10-21T09:41:41.934Z,6.18
2022-10-21T09:44:27.079Z,6.47
2022-10-21T09:46:55.863Z,6.78
2022-10-21T09:50:05.418Z,6.35
2022-10-21T09:52:30.496Z,8.93
2022-10-21T09:54:59.626Z,7.18
2022-10-21T09:57:42.160Z,7.50
2022-10-21T10:00:13.848Z,6.65
2022-10-21T10:02:46.967Z,6.93
2022-10-21T10:05:39.528Z,5.85
2022-10-21T10:08:25.071Z,6.07
2022-10-21T10:10:53.648Z,6.38
2022-10-21T10:13:23.654Z,6.47
2022-10-21T10:15:51.892Z,5.38
2022-10-21T10:18:24.810Z,5.35
2022-10-21T10:21:12.547Z,10.18
2022-10-21T10:23:49.982Z,5.78
2022-10-21T10:26:27.631Z,5.95
2022-10-21T10:29:01.583Z,4.47
2022-10-21T10:31:38.262Z,4.85
2022-10-21T10:34:09.454Z,4.47
2022-10-21T10:36:41.605Z,3.63
2022-10-21T10:39:19.352Z,2.85
2022-10-21T10:41:53.665Z,3.00
2022-10-21T10:44:30.470Z,3.13
2022-10-21T10:47:00.735Z,3.35
2022-10-21T10:49:38.173Z,2.80
2022-10-21T10:52:21.324Z,2.90
2022-10-21T10:54:50.737Z,3.10
2022-10-21T10:57:29.916Z,2.80
2022-10-21T11:00:17.532Z,2.40
2022-10-21T11:02:56.178Z,2.20
2022-10-21T11:05:30.269Z,2.88
2022-10-21T11:08:06.879Z,6.45
2022-10-21T11:10:37.824Z,2.50
2022-10-21T11:13:11.839Z,2.40
2022-10-21T11:15:57.270Z,1.90
2022-10-21T11:18:35.022Z,2.70
2022-10-21T11:21:33.671Z,1.75
2022-10-21T11:24:30.216Z,6.95
2022-10-21T11:27:04.873Z,3.80
2022-10-21T11:29:53.325Z,1.95
2022-10-21T11:32:39.511Z,1.73
2022-10-21T11:35:19.698Z,1.92
2022-10-21T11:38:36.308Z,2.58
2022-10-21T11:41:24.309Z,2.30
2022-10-21T11:44:18.289Z,1.90
2022-10-21T11:46:59.585Z,1.85
2022-10-21T11:49:47.540Z,2.65
2022-10-21T11:52:32.571Z,3.53
2022-10-21T11:55:36.734Z,4.75
2022-10-21T11:58:24.285Z,3.00
2022-10-21T12:01:02.514Z,2.20
2022-10-21T12:03:52.490Z,2.45
2022-10-21T12:06:34.273Z,1.92
2022-10-21T12:09:06.564Z,1.95
2022-10-21T12:11:42.825Z,1.80
2022-10-21T12:14:31.100Z,1.95
2022-10-21T12:17:04.313Z,1.63
2022-10-21T12:19:33.502Z,1.67
2022-10-21T12:22:03.114Z,1.90
2022-10-21T12:24:45.307Z,1.67
2022-10-21T12:27:23.489Z,1.73
2022-10-21T12:30:08.570Z,2.50
2022-10-21T12:32:46.657Z,1.92
2022-10-21T12:35:21.310Z,3.10
2022-10-21T12:38:21.958Z,3.00
2022-10-21T12:40:52.223Z,3.33
2022-10-21T12:43:27.321Z,3.60
2022-10-21T12:46:09.443Z,3.70
2022-10-21T12:48:41.912Z,2.47
2022-10-21T12:51:23.582Z,3.40
2022-10-21T12:53:56.373Z,2.58
2022-10-21T12:56:32.873Z,3.67
2022-10-21T12:59:06.872Z,3.15
2022-10-21T13:01:42.833Z,3.15
2022-10-21T13:04:45.828Z,2.85
2022-10-21T13:07:39.373Z,2.80
2022-10-21T13:10:26.890Z,2.40
2022-10-21T13:13:35.578Z,2.40
2022-10-21T13:16:38.640Z,2.10
2022-10-21T13:19:34.922Z,2.10
2022-10-21T13:22:12.043Z,2.40
2022-10-21T13:24:41.411Z,2.17
2022-10-21T13:27:29.852Z,1.92
2022-10-21T13:29:59.396Z,2.30
2022-10-21T13:32:34.858Z,2.30
2022-10-21T13:35:34.253Z,1.92
2022-10-21T13:38:07.142Z,3.45
2022-10-21T13:40:46.774Z,1.98
2022-10-21T13:43:18.906Z,2.25
2022-10-21T13:46:00.615Z,2.70
2022-10-21T13:48:30.294Z,1.85
2022-10-21T13:51:16.056Z,2.20
2022-10-21T13:53:46.550Z,2.60
2022-10-21T13:56:23.155Z,2.38
2022-10-21T13:58:51.994Z,1.90
2022-10-21T14:01:25.398Z,2.25
2022-10-21T14:03:58.689Z,2.25
2022-10-21T14:06:32.379Z,2.10
2022-10-21T14:09:01.749Z,2.03
2022-10-21T14:11:36.511Z,2.45
2022-10-21T14:14:10.799Z,2.10
2022-10-21T14:16:42.679Z,2.20
2022-10-21T14:19:20.892Z,2.60
2022-10-21T14:21:53.563Z,2.40
2022-10-21T14:24:33.359Z,2.20
2022-10-21T14:27:03.064Z,2.10
2022-10-21T14:29:34.492Z,2.67
2022-10-21T14:32:05.708Z,2.58
2022-10-21T14:34:39.574Z,2.58
2022-10-21T14:37:22.071Z,3.33
2022-10-21T14:39:50.514Z,2.30
2022-10-21T14:42:22.389Z,2.10
2022-10-21T14:44:54.338Z,2.30
2022-10-21T14:47:27.452Z,2.25
2022-10-21T14:49:59.729Z,2.50
2022-10-21T14:52:37.838Z,2.35
2022-10-21T14:55:11.173Z,1.98
2022-10-21T14:57:44.303Z,2.55
2022-10-21T15:00:29.070Z,2.70
2022-10-21T15:02:59.886Z,2.30
2022-10-21T15:05:38.161Z,2.78
2022-10-21T15:08:32.915Z,2.47
2022-10-21T15:11:23.413Z,3.33
2022-10-21T15:14:31.855Z,2.95
2022-10-21T15:17:04.499Z,2.85
2022-10-21T15:19:45.934Z,3.00
2022-10-21T15:22:26.862Z,3.08
2022-10-21T15:25:01.627Z,3.15
2022-10-21T15:27:37.007Z,3.28
2022-10-21T15:30:08.833Z,3.40
2022-10-21T15:32:39.784Z,3.10
2022-10-21T15:35:16.535Z,3.08
2022-10-21T15:37:49.731Z,3.72
2022-10-21T15:40:20.120Z,3.60
2022-10-21T15:42:49.269Z,3.67
2022-10-21T15:45:21.269Z,3.00
2022-10-21T15:47:53.498Z,3.30
2022-10-21T15:50:26.163Z,4.35
2022-10-21T15:55:24.983Z,6.70
2022-10-21T15:57:53.514Z,3.85
2022-10-21T16:00:24.364Z,3.60
2022-10-21T16:02:53.169Z,3.30
2022-10-21T16:05:22.709Z,3.22
2022-10-21T16:07:51.365Z,3.15
2022-10-21T16:10:23.787Z,5.68
2022-10-21T16:12:52.816Z,3.70
2022-10-21T16:15:25.132Z,3.45
2022-10-21T16:17:57.813Z,4.40
2022-10-21T16:20:29.581Z,8.20
2022-10-21T16:23:01.944Z,18.58
2022-10-21T16:25:33.391Z,5.60
2022-10-21T16:28:02.052Z,5.53
2022-10-21T16:30:35.387Z,5.35
2022-10-21T16:33:07.112Z,4.82
2022-10-21T16:35:40.264Z,4.97
2022-10-21T16:38:08.671Z,5.93
2022-10-21T16:40:38.518Z,5.63
2022-10-21T16:43:08.322Z,5.50
2022-10-21T16:45:36.614Z,4.93
2022-10-21T16:48:06.723Z,5.22
2022-10-21T16:50:40.756Z,5.25
2022-10-21T16:53:15.963Z,4.50
2022-10-21T16:55:46.209Z,4.88
2022-10-21T16:58:14.733Z,4.07
2022-10-21T17:00:43.093Z,4.97
2022-10-21T17:03:12.492Z,6.28
2022-10-21T17:05:40.839Z,6.90
2022-10-21T17:08:09.217Z,6.60
2022-10-21T17:10:37.738Z,7.63
2022-10-21T17:13:08.529Z,7.72
2022-10-21T17:15:38.058Z,8.32
2022-10-21T17:18:06.645Z,6.93
2022-10-21T17:20:36.018Z,5.93
2022-10-21T17:23:06.592Z,4.85
2022-10-21T17:25:34.981Z,4.82
2022-10-21T17:28:03.424Z,5.43
2022-10-21T17:30:40.108Z,4.70
2022-10-21T17:33:10.669Z,4.85
2022-10-21T17:35:44.053Z,5.22
2022-10-21T17:38:14.895Z,5.40
2022-10-21T17:40:43.831Z,5.80
2022-10-21T17:43:12.203Z,4.55
2022-10-21T17:45:43.204Z,5.32
2022-10-21T17:48:11.977Z,5.68
2022-10-21T17:50:41.348Z,5.25
2022-10-21T17:53:09.919Z,5.03
2022-10-21T17:55:38.176Z,4.88
2022-10-21T17:58:06.868Z,4.05
2022-10-21T18:00:35.798Z,4.80
2022-10-21T18:03:05.483Z,4.95
2022-10-21T18:05:34.098Z,5.00
2022-10-21T18:08:02.497Z,4.68
2022-10-21T18:10:30.777Z,4.65
2022-10-21T18:12:59.136Z,4.75
2022-10-21T18:15:28.274Z,4.85
2022-10-21T18:17:57.132Z,5.22
2022-10-21T18:20:27.087Z,4.97
2022-10-21T18:22:55.344Z,4.80
2022-10-21T18:25:23.711Z,5.15
2022-10-21T18:27:52.100Z,5.32
2022-10-21T18:30:20.658Z,6.03
2022-10-21T18:32:49.191Z,7.75
2022-10-21T18:35:18.417Z,7.53
2022-10-21T18:37:48.353Z,7.22
2022-10-21T18:40:16.898Z,7.07
2022-10-21T18:42:45.832Z,7.32
2022-10-21T18:45:14.182Z,6.63
2022-10-21T18:47:47.082Z,6.97
2022-10-21T18:50:16.481Z,6.75
2022-10-21T18:52:45.487Z,6.70
2022-10-21T18:55:18.581Z,6.88
2022-10-21T18:57:46.960Z,6.00
2022-10-21T19:00:15.822Z,6.18
2022-10-21T19:02:46.637Z,7.22
2022-10-21T19:05:15.491Z,5.70
2022-10-21T19:07:43.947Z,5.30
2022-10-21T19:10:15.346Z,5.38
2022-10-21T19:12:45.665Z,4.70
2022-10-21T19:15:14.456Z,4.53
2022-10-21T19:17:43.926Z,4.57
2022-10-21T19:20:12.352Z,4.22
2022-10-21T19:22:40.859Z,4.35
2022-10-21T19:25:10.413Z,4.90
2022-10-21T19:27:38.956Z,4.80
2022-10-21T19:30:11.134Z,5.22
2022-10-21T19:32:39.780Z,5.32
2022-10-21T19:35:10.002Z,5.40
2022-10-21T19:37:38.798Z,5.75
2022-10-21T19:40:08.379Z,7.93
2022-10-21T19:42:36.818Z,7.45
2022-10-21T19:45:06.504Z,6.97
2022-10-21T19:47:37.964Z,9.48
2022-10-21T19:50:08.266Z,8.30
2022-10-21T19:52:37.844Z,8.27
2022-10-21T19:55:07.509Z,7.38
2022-10-21T19:57:36.268Z,12.05
2022-10-21T20:00:07.094Z,16.98
2022-10-21T20:02:43.357Z,13.95
2022-10-21T20:05:12.347Z,11.63
2022-10-21T20:07:41.455Z,8.70
2022-10-21T20:10:11.039Z,6.95
2022-10-21T20:12:39.596Z,7.25
2022-10-21T20:15:09.435Z,6.35
2022-10-21T20:17:39.205Z,6.00
2022-10-21T20:20:12.470Z,6.05
2022-10-21T20:22:45.999Z,5.53
2022-10-21T20:25:14.964Z,5.72
2022-10-21T20:27:43.354Z,7.47
2022-10-21T20:30:13.009Z,7.10
2022-10-21T20:32:48.815Z,6.53
2022-10-21T20:35:19.173Z,6.45
2022-10-21T20:37:51.991Z,7.10
2022-10-21T20:40:20.859Z,7.35
2022-10-21T20:42:50.003Z,6.90
2022-10-21T20:45:22.740Z,7.30
2022-10-21T20:47:53.387Z,6.82
2022-10-21T20:50:22.934Z,6.63
2022-10-21T20:52:52.223Z,6.45
2022-10-21T20:55:21.431Z,6.88
2022-10-21T20:57:50.003Z,9.05
2022-10-21T21:00:18.513Z,13.82
2022-10-21T21:02:46.904Z,13.95
2022-10-21T21:05:17.026Z,14.27
2022-10-21T21:07:45.361Z,11.55
2022-10-21T21:10:14.651Z,12.05
2022-10-21T21:12:43.134Z,7.32
2022-10-21T21:15:12.113Z,6.30
2022-10-21T21:17:40.563Z,6.43
2022-10-21T21:20:10.908Z,6.45
2022-10-21T21:22:40.988Z,5.55
2022-10-21T21:25:11.824Z,6.05
2022-10-21T21:27:41.538Z,5.72
2022-10-21T21:30:12.493Z,5.32
2022-10-21T21:32:41.169Z,5.35
2022-10-21T21:35:10.828Z,5.13
2022-10-21T21:37:40.602Z,5.47
2022-10-21T21:40:15.900Z,5.60
2022-10-21T21:42:44.396Z,4.72
2022-10-21T21:45:14.522Z,5.00
2022-10-21T21:47:45.599Z,5.45
2022-10-21T21:50:14.281Z,5.22
2022-10-21T21:52:45.992Z,5.32
2022-10-21T21:55:16.436Z,4.90
2022-10-21T21:57:47.202Z,5.22
2022-10-21T22:00:16.641Z,4.90
2022-10-21T22:02:45.470Z,4.93
2022-10-21T22:05:15.160Z,4.95
2022-10-21T22:07:45.763Z,5.35
2022-10-21T22:10:15.783Z,5.18
2022-10-21T22:12:44.826Z,5.28
2022-10-21T22:15:29.672Z,5.93
2022-10-21T22:18:05.585Z,4.68
2022-10-21T22:20:34.238Z,5.30
2022-10-21T22:23:04.050Z,6.25
2022-10-21T22:25:32.490Z,5.60
2022-10-21T22:28:01.977Z,6.07
2022-10-21T22:30:30.464Z,5.50
2022-10-21T22:32:59.863Z,5.55
2022-10-21T22:35:30.371Z,4.50
2022-10-21T22:37:58.725Z,5.00
2022-10-21T22:40:28.704Z,5.13
2022-10-21T22:42:57.192Z,4.47
2022-10-21T22:45:25.883Z,4.18
2022-10-21T22:47:54.742Z,5.35
2022-10-21T22:50:23.226Z,4.57
2022-10-21T22:52:51.809Z,4.90
2022-10-21T22:55:20.150Z,4.53
2022-10-21T22:57:51.257Z,4.80
2022-10-21T23:00:19.954Z,4.88
2022-10-21T23:02:49.465Z,4.80
2022-10-21T23:05:18.813Z,4.85
2022-10-21T23:07:47.190Z,5.15
2022-10-21T23:10:16.009Z,4.90
2022-10-21T23:12:45.914Z,2.97
2022-10-21T23:15:16.078Z,1.40
2022-10-21T23:17:44.699Z,0.93
2022-10-21T23:20:13.998Z,0.80
2022-10-21T23:22:42.928Z,0.82
2022-10-21T23:25:11.957Z,0.90
2022-10-21T23:27:42.712Z,0.90
2022-10-21T23:30:12.595Z,1.20
2022-10-21T23:32:42.684Z,0.82
2022-10-21T23:35:13.954Z,0.93
2022-10-21T23:37:44.094Z,1.00
2022-10-21T23:40:14.168Z,1.08
2022-10-21T23:42:43.071Z,0.82
2022-10-21T23:45:12.779Z,1.25
2022-10-21T23:47:43.274Z,1.23
2022-10-21T23:50:12.765Z,1.40
2022-10-21T23:52:42.078Z,1.40
2022-10-21T23:55:11.667Z,1.48
2022-10-21T23:57:41.377Z,1.15
